createdAt,value
2023-07-22T00:01:35.691Z,79.50
2023-07-22T00:04:07.082Z,79.38
2023-07-22T00:06:39.922Z,79.40
2023-07-22T00:09:12.322Z,79.59
2023-07-22T00:11:44.792Z,79.73
2023-07-22T00:14:17.413Z,80.00
2023-07-22T00:16:47.541Z,80.09
2023-07-22T00:19:20.329Z,80.31
2023-07-22T00:21:55.204Z,80.42
2023-07-22T00:24:25.355Z,80.57
2023-07-22T00:26:55.699Z,80.50
2023-07-22T00:29:25.982Z,80.69
2023-07-22T00:31:56.038Z,80.59
2023-07-22T00:34:26.760Z,80.81
2023-07-22T00:37:00.468Z,80.93
2023-07-22T00:39:30.794Z,81.20
2023-07-22T00:42:02.146Z,81.38
2023-07-22T00:44:32.744Z,81.56
2023-07-22T00:47:03.151Z,81.55
2023-07-22T00:49:36.013Z,81.75
2023-07-22T00:52:09.692Z,82.04
2023-07-22T00:54:39.917Z,82.11
2023-07-22T00:57:11.414Z,81.84
2023-07-22T00:59:42.275Z,81.77
2023-07-22T01:02:12.513Z,81.86
2023-07-22T01:04:42.792Z,81.81
2023-07-22T01:07:15.977Z,81.85
2023-07-22T01:09:47.313Z,81.58
2023-07-22T01:12:17.692Z,81.53
2023-07-22T01:14:48.039Z,81.52
2023-07-22T01:17:18.083Z,81.69
2023-07-22T01:19:48.817Z,81.55
2023-07-22T01:22:22.165Z,81.47
2023-07-22T01:24:55.301Z,81.31
2023-07-22T01:27:25.729Z,81.59
2023-07-22T01:29:55.944Z,81.75
2023-07-22T01:32:26.409Z,81.96
2023-07-22T01:34:56.539Z,82.06
2023-07-22T01:37:26.776Z,82.33
2023-07-22T01:40:00.167Z,82.58
2023-07-22T01:42:30.353Z,82.52
2023-07-22T01:45:00.446Z,82.37
2023-07-22T01:47:30.522Z,82.44
2023-07-22T01:50:00.563Z,82.18
2023-07-22T01:52:30.697Z,82.22
2023-07-22T01:55:06.758Z,82.08
2023-07-22T01:57:37.633Z,82.02
2023-07-22T02:00:12.227Z,82.17
2023-07-22T02:02:48.486Z,81.87
2023-07-22T02:05:19.479Z,81.68
2023-07-22T02:07:49.607Z,81.53
2023-07-22T02:10:22.902Z,81.22
2023-07-22T02:12:53.086Z,81.01
2023-07-22T02:15:25.381Z,80.85
2023-07-22T02:17:56.629Z,80.68
2023-07-22T02:20:30.229Z,80.50
2023-07-22T02:23:00.763Z,80.25
2023-07-22T02:25:33.588Z,80.40
2023-07-22T02:28:03.777Z,80.39
2023-07-22T02:30:34.443Z,80.34
2023-07-22T02:33:05.437Z,80.22
2023-07-22T02:35:50.592Z,80.26
2023-07-22T02:38:20.713Z,80.38
2023-07-22T02:40:53.352Z,80.47
2023-07-22T02:43:23.450Z,80.32
2023-07-22T02:45:53.525Z,80.27
2023-07-22T02:48:23.592Z,80.15
2023-07-22T02:50:53.949Z,80.08
2023-07-22T02:53:24.052Z,80.02
2023-07-22T02:55:56.824Z,79.74
2023-07-22T02:58:27.067Z,79.84
2023-07-22T03:00:58.993Z,79.95
2023-07-22T03:03:29.466Z,79.71
2023-07-22T03:06:00.135Z,79.49
2023-07-22T03:08:30.248Z,79.50
2023-07-22T03:11:02.972Z,79.21
2023-07-22T03:13:35.192Z,79.38
2023-07-22T03:16:05.741Z,79.19
2023-07-22T03:18:36.281Z,79.43
2023-07-22T03:21:06.608Z,79.58
2023-07-22T03:23:36.768Z,79.25
2023-07-22T03:26:09.597Z,79.17
2023-07-22T03:28:39.877Z,79.30
2023-07-22T03:31:10.157Z,79.12
2023-07-22T03:33:40.346Z,79.35
2023-07-22T03:36:24.453Z,78.91
2023-07-22T03:39:12.941Z,78.58
2023-07-22T03:41:45.715Z,78.75
2023-07-22T03:44:18.876Z,78.69
2023-07-22T03:46:51.793Z,78.85
2023-07-22T03:49:21.971Z,78.65
2023-07-22T03:51:52.083Z,78.41
2023-07-22T03:54:22.676Z,78.50
2023-07-22T03:56:55.390Z,78.40
2023-07-22T03:59:25.549Z,78.59
2023-07-22T04:01:58.293Z,78.31
2023-07-22T04:04:28.358Z,78.15
2023-07-22T04:06:58.480Z,78.22
2023-07-22T04:09:28.540Z,78.04
2023-07-22T04:12:03.857Z,78.08
2023-07-22T04:14:34.020Z,78.21
2023-07-22T04:17:21.567Z,78.09
2023-07-22T04:19:55.598Z,78.18
2023-07-22T04:22:26.733Z,78.23
2023-07-22T04:24:56.831Z,77.77
2023-07-22T04:27:32.344Z,77.73
2023-07-22T04:30:02.419Z,77.63
2023-07-22T04:32:32.920Z,77.49
2023-07-22T04:35:03.656Z,78.13
2023-07-22T04:37:33.814Z,78.32
2023-07-22T04:40:07.363Z,78.45
2023-07-22T04:42:40.025Z,78.07
2023-07-22T04:45:16.707Z,77.62
2023-07-22T04:47:48.598Z,77.00
2023-07-22T04:50:20.810Z,76.20
2023-07-22T04:52:52.989Z,76.13
2023-07-22T04:55:23.864Z,75.37
2023-07-22T04:57:57.370Z,74.70
2023-07-22T05:00:30.274Z,73.79
2023-07-22T05:03:06.033Z,73.29
2023-07-22T05:05:42.766Z,73.05
2023-07-22T05:08:16.839Z,71.32
2023-07-22T05:10:50.855Z,71.13
2023-07-22T05:13:31.772Z,70.34
2023-07-22T05:16:02.040Z,70.91
2023-07-22T05:18:32.136Z,68.99
2023-07-22T05:21:02.163Z,68.95
2023-07-22T05:23:32.201Z,68.31
2023-07-22T05:26:02.248Z,68.13
2023-07-22T05:28:35.435Z,67.44
2023-07-22T05:31:05.703Z,66.09
2023-07-22T05:33:35.874Z,66.67
2023-07-22T05:36:06.005Z,65.70
2023-07-22T05:38:36.804Z,65.67
2023-07-22T05:41:06.905Z,65.51
2023-07-22T05:43:39.816Z,64.58
2023-07-22T05:46:10.019Z,64.16
2023-07-22T05:48:40.613Z,63.74
2023-07-22T05:51:10.904Z,63.30
2023-07-22T05:53:40.935Z,63.08
2023-07-22T05:56:11.022Z,63.01
2023-07-22T05:58:43.821Z,62.80
2023-07-22T06:01:16.096Z,63.88
2023-07-22T06:03:49.236Z,63.31
2023-07-22T06:06:24.206Z,62.71
2023-07-22T06:08:54.602Z,62.31
2023-07-22T06:11:25.258Z,63.22
2023-07-22T06:13:57.978Z,62.87
2023-07-22T06:16:28.425Z,62.69
2023-07-22T06:18:58.758Z,63.58
2023-07-22T06:21:30.428Z,63.66
2023-07-22T06:24:08.794Z,63.67
2023-07-22T06:26:38.827Z,63.89
2023-07-22T06:29:11.452Z,62.67
2023-07-22T06:31:42.220Z,61.34
2023-07-22T06:34:12.395Z,61.11
2023-07-22T06:36:42.699Z,59.25
2023-07-22T06:39:12.782Z,59.21
2023-07-22T06:41:42.968Z,58.61
2023-07-22T06:44:15.722Z,59.05
2023-07-22T06:46:49.906Z,57.77
2023-07-22T06:49:20.031Z,58.26
2023-07-22T06:51:53.204Z,57.61
2023-07-22T06:54:23.248Z,55.88
2023-07-22T06:56:53.403Z,55.61
2023-07-22T06:59:27.390Z,57.25
2023-07-22T07:01:57.496Z,56.02
2023-07-22T07:04:27.707Z,55.87
2023-07-22T07:07:00.501Z,56.24
2023-07-22T07:09:31.440Z,56.07
2023-07-22T07:12:01.530Z,55.74
2023-07-22T07:14:34.625Z,54.54
2023-07-22T07:17:09.051Z,54.16
2023-07-22T07:19:39.199Z,53.96
2023-07-22T07:22:09.818Z,52.52
2023-07-22T07:24:40.027Z,53.43
2023-07-22T07:27:10.673Z,52.92
2023-07-22T07:32:16.473Z,53.40
2023-07-22T07:34:46.818Z,51.96
2023-07-22T07:37:16.855Z,52.40
2023-07-22T07:39:47.110Z,52.54
2023-07-22T07:42:17.201Z,53.18
2023-07-22T07:44:50.588Z,51.07
2023-07-22T07:47:20.726Z,51.08
2023-07-22T07:49:51.121Z,48.77
2023-07-22T07:52:21.240Z,47.58
2023-07-22T07:54:52.094Z,47.00
2023-07-22T07:57:22.114Z,48.27
2023-07-22T07:59:54.884Z,47.74
2023-07-22T08:02:24.911Z,48.34
2023-07-22T08:04:54.962Z,47.93
2023-07-22T08:07:25.186Z,48.28
2023-07-22T08:09:55.467Z,47.13
2023-07-22T08:12:25.872Z,46.14
2023-07-22T08:14:59.297Z,45.43
2023-07-22T08:17:29.403Z,46.26
2023-07-22T08:20:02.194Z,45.94
2023-07-22T08:22:32.405Z,46.73
2023-07-22T08:25:02.587Z,45.94
2023-07-22T08:27:32.869Z,45.10
2023-07-22T08:30:12.662Z,46.44
2023-07-22T08:32:43.015Z,45.71
2023-07-22T08:35:15.020Z,44.35
2023-07-22T08:37:48.374Z,46.41
2023-07-22T08:40:19.559Z,45.87
2023-07-22T08:42:50.183Z,46.15
2023-07-22T08:45:30.029Z,46.19
2023-07-22T08:48:05.322Z,46.81
2023-07-22T08:50:41.128Z,47.26
2023-07-22T08:53:11.869Z,45.70
2023-07-22T08:55:42.739Z,44.90
2023-07-22T08:58:13.897Z,44.95
2023-07-22T09:00:50.852Z,45.29
2023-07-22T09:03:21.429Z,45.07
2023-07-22T09:05:52.319Z,44.74
2023-07-22T09:08:22.418Z,45.30
2023-07-22T09:10:52.954Z,47.09
2023-07-22T09:13:23.996Z,46.52
2023-07-22T09:15:57.805Z,45.47
2023-07-22T09:18:31.612Z,45.43
2023-07-22T09:21:02.903Z,45.04
2023-07-22T09:23:37.153Z,46.07
2023-07-22T09:26:17.516Z,46.47
2023-07-22T09:29:00.348Z,46.10
2023-07-22T09:31:34.298Z,45.00
2023-07-22T09:34:13.781Z,45.35
2023-07-22T09:36:54.159Z,44.75
2023-07-22T09:39:24.274Z,43.10
2023-07-22T09:41:54.940Z,43.36
2023-07-22T09:44:25.186Z,42.02
2023-07-22T09:46:58.058Z,43.09
2023-07-22T09:49:28.192Z,42.95
2023-07-22T09:52:03.335Z,42.28
2023-07-22T09:54:33.624Z,41.86
2023-07-22T09:57:04.481Z,40.40
2023-07-22T09:59:35.036Z,41.32
2023-07-22T10:02:08.200Z,39.67
2023-07-22T10:04:40.978Z,40.98
2023-07-22T10:07:12.432Z,41.85
2023-07-22T10:09:43.320Z,41.72
2023-07-22T10:12:16.156Z,41.38
2023-07-22T10:14:49.269Z,40.50
2023-07-22T10:17:22.675Z,41.25
2023-07-22T10:19:55.065Z,42.48
2023-07-22T10:22:26.127Z,43.03
2023-07-22T10:25:11.845Z,43.29
2023-07-22T10:27:48.686Z,42.90
2023-07-22T10:30:22.608Z,41.56
2023-07-22T10:32:56.971Z,40.15
2023-07-22T10:35:45.994Z,41.44
2023-07-22T10:38:17.840Z,41.99
2023-07-22T10:40:53.469Z,40.69
2023-07-22T10:43:30.722Z,41.12
2023-07-22T10:46:02.752Z,40.44
2023-07-22T10:48:39.794Z,38.25
2023-07-22T10:51:11.290Z,38.34
2023-07-22T10:53:46.438Z,36.52
2023-07-22T10:56:18.709Z,37.13
2023-07-22T10:59:05.074Z,38.61
2023-07-22T11:01:37.364Z,37.05
2023-07-22T11:04:15.648Z,37.85
2023-07-22T11:06:59.187Z,38.28
2023-07-22T11:09:45.901Z,36.94
2023-07-22T11:12:17.573Z,36.87
2023-07-22T11:14:52.620Z,37.58
2023-07-22T11:17:32.385Z,36.51
2023-07-22T11:20:06.448Z,37.59
2023-07-22T11:22:36.767Z,38.01
2023-07-22T11:25:07.764Z,36.66
2023-07-22T11:27:37.878Z,36.39
2023-07-22T11:30:09.027Z,34.89
2023-07-22T11:32:40.084Z,34.59
2023-07-22T11:35:13.028Z,34.49
2023-07-22T11:37:43.492Z,33.63
2023-07-22T11:40:19.432Z,34.38
2023-07-22T11:42:54.605Z,35.33
2023-07-22T11:45:24.773Z,35.92
2023-07-22T11:47:54.928Z,35.57
2023-07-22T11:50:37.671Z,34.31
2023-07-22T11:53:07.821Z,35.20
2023-07-22T11:55:42.743Z,34.22
2023-07-22T11:58:13.220Z,33.51
2023-07-22T12:01:00.260Z,33.32
2023-07-22T12:03:36.641Z,32.54
2023-07-22T12:06:13.781Z,32.93
2023-07-22T12:08:48.908Z,33.56
2023-07-22T12:11:22.535Z,34.22
2023-07-22T12:13:54.189Z,32.51
2023-07-22T12:16:30.215Z,32.41
2023-07-22T12:19:00.312Z,32.03
2023-07-22T12:21:33.034Z,32.92
2023-07-22T12:24:04.181Z,32.83
2023-07-22T12:26:34.757Z,32.69
2023-07-22T12:29:04.824Z,33.78
2023-07-22T12:31:34.917Z,35.02
2023-07-22T12:34:05.181Z,35.29
2023-07-22T12:36:37.972Z,35.45
2023-07-22T12:39:08.074Z,34.83
2023-07-22T12:41:38.132Z,35.11
2023-07-22T12:44:08.606Z,33.72
2023-07-22T12:46:38.730Z,34.72
2023-07-22T12:49:08.758Z,33.58
2023-07-22T12:51:41.492Z,33.47
2023-07-22T12:54:11.507Z,30.55
2023-07-22T12:56:41.573Z,31.46
2023-07-22T12:59:11.613Z,30.88
2023-07-22T13:01:43.581Z,30.17
2023-07-22T13:04:13.819Z,31.75
2023-07-22T13:06:46.616Z,32.53
2023-07-22T13:09:16.630Z,33.06
2023-07-22T13:11:46.764Z,33.04
2023-07-22T13:14:18.905Z,33.95
2023-07-22T13:16:49.020Z,32.99
2023-07-22T13:19:19.048Z,33.66
2023-07-22T13:21:51.794Z,34.26
2023-07-22T13:24:22.020Z,34.27
2023-07-22T13:26:52.245Z,34.01
2023-07-22T13:29:22.466Z,34.37
2023-07-22T13:31:52.627Z,33.86
2023-07-22T13:34:22.722Z,34.60
2023-07-22T13:36:56.029Z,35.04
2023-07-22T13:39:26.194Z,35.44
2023-07-22T13:41:56.281Z,35.09
2023-07-22T13:44:26.442Z,34.78
2023-07-22T13:46:56.522Z,35.80
2023-07-22T13:49:26.606Z,35.36
2023-07-22T13:51:59.242Z,35.85
2023-07-22T13:54:29.309Z,34.88
2023-07-22T13:56:59.326Z,34.98
2023-07-22T13:59:29.473Z,34.65
2023-07-22T14:01:59.567Z,35.27
2023-07-22T14:04:29.692Z,35.70
2023-07-22T14:07:02.482Z,35.39
2023-07-22T14:09:32.537Z,35.54
2023-07-22T14:12:03.270Z,36.10
2023-07-22T14:14:33.342Z,36.02
2023-07-22T14:17:03.561Z,36.83
2023-07-22T14:19:34.227Z,35.48
2023-07-22T14:22:07.242Z,35.48
2023-07-22T14:24:38.484Z,35.62
2023-07-22T14:27:09.267Z,35.88
2023-07-22T14:29:39.299Z,35.74
2023-07-22T14:32:10.251Z,36.33
2023-07-22T14:34:40.303Z,36.82
2023-07-22T14:37:13.159Z,36.04
2023-07-22T14:39:43.218Z,35.62
2023-07-22T14:42:13.305Z,35.89
2023-07-22T14:47:13.281Z,36.26
2023-07-22T14:49:43.409Z,36.53
2023-07-22T14:52:16.132Z,36.87
2023-07-22T14:54:46.229Z,36.72
2023-07-22T14:57:16.321Z,37.40
2023-07-22T14:59:46.384Z,37.39
2023-07-22T15:02:16.583Z,37.81
2023-07-22T15:04:46.625Z,37.79
2023-07-22T15:07:19.274Z,36.51
2023-07-22T15:09:49.425Z,36.88
2023-07-22T15:12:19.656Z,37.63
2023-07-22T15:14:49.782Z,37.64
2023-07-22T15:17:21.581Z,36.90
2023-07-22T15:19:53.185Z,37.51
2023-07-22T15:22:25.947Z,37.10
2023-07-22T15:24:55.968Z,37.77
2023-07-22T15:27:26.506Z,37.68
2023-07-22T15:29:56.519Z,38.29
2023-07-22T15:32:26.645Z,38.73
2023-07-22T15:34:56.721Z,37.92
2023-07-22T15:37:29.451Z,38.57
2023-07-22T15:39:59.619Z,38.39
2023-07-22T15:42:29.662Z,38.17
2023-07-22T15:44:59.780Z,37.65
2023-07-22T15:47:29.844Z,39.03
2023-07-22T15:49:59.912Z,39.14
2023-07-22T15:52:32.632Z,38.85
2023-07-22T15:55:02.631Z,38.56
2023-07-22T15:57:32.772Z,39.43
2023-07-22T16:00:02.961Z,38.65
2023-07-22T16:02:35.030Z,39.15
2023-07-22T16:05:06.734Z,38.69
2023-07-22T16:07:41.797Z,39.20
2023-07-22T16:10:12.121Z,38.97
2023-07-22T16:12:42.148Z,38.61
2023-07-22T16:15:13.195Z,38.59
2023-07-22T16:17:43.797Z,39.07
2023-07-22T16:20:15.497Z,39.00
2023-07-22T16:22:48.250Z,39.75
2023-07-22T16:25:18.303Z,38.44
2023-07-22T16:27:48.304Z,39.18
2023-07-22T16:30:18.349Z,38.97
2023-07-22T16:32:48.401Z,38.37
2023-07-22T16:35:18.426Z,38.30
2023-07-22T16:37:51.096Z,39.09
2023-07-22T16:40:21.339Z,38.92
2023-07-22T16:42:51.733Z,38.21
2023-07-22T16:45:22.071Z,38.82
2023-07-22T16:47:52.264Z,38.61
2023-07-22T16:50:22.468Z,39.10
2023-07-22T16:52:55.171Z,39.80
2023-07-22T16:55:25.307Z,39.25
2023-07-22T16:57:55.378Z,38.71
2023-07-22T17:00:25.578Z,38.58
2023-07-22T17:02:55.685Z,38.40
2023-07-22T17:05:25.862Z,38.70
2023-07-22T17:08:01.288Z,38.85
2023-07-22T17:10:31.425Z,39.26
2023-07-22T17:13:01.531Z,39.35
2023-07-22T17:15:31.645Z,39.36
2023-07-22T17:18:01.929Z,39.71
2023-07-22T17:20:32.165Z,39.50
2023-07-22T17:23:04.965Z,39.13
2023-07-22T17:25:35.053Z,39.97
2023-07-22T17:28:05.648Z,39.25
2023-07-22T17:30:35.805Z,40.00
2023-07-22T17:33:08.597Z,40.05
2023-07-22T17:35:40.678Z,40.07
2023-07-22T17:38:14.322Z,39.79
2023-07-22T17:40:45.782Z,40.11
2023-07-22T17:43:16.002Z,40.25
2023-07-22T17:45:46.116Z,39.98
2023-07-22T17:48:16.393Z,40.36
2023-07-22T17:50:46.554Z,40.26
2023-07-22T17:53:19.243Z,40.56
2023-07-22T17:55:51.892Z,40.17
2023-07-22T17:58:22.166Z,40.24
2023-07-22T18:00:52.531Z,40.21
2023-07-22T18:03:22.641Z,40.42
2023-07-22T18:05:52.897Z,39.61
2023-07-22T18:08:27.494Z,39.96
2023-07-22T18:10:58.921Z,40.62
2023-07-22T18:13:29.071Z,41.29
2023-07-22T18:15:59.141Z,40.51
2023-07-22T18:18:29.237Z,40.79
2023-07-22T18:20:59.575Z,41.27
2023-07-22T18:23:35.313Z,42.09
2023-07-22T18:26:05.435Z,42.74
2023-07-22T18:28:35.468Z,43.13
2023-07-22T18:31:05.595Z,43.21
2023-07-22T18:33:38.466Z,43.04
2023-07-22T18:36:08.984Z,44.16
2023-07-22T18:38:41.940Z,43.82
2023-07-22T18:41:12.052Z,44.42
2023-07-22T18:43:44.684Z,44.60
2023-07-22T18:46:18.747Z,45.31
2023-07-22T18:48:48.976Z,45.66
2023-07-22T18:51:19.880Z,45.93
2023-07-22T18:53:52.580Z,46.13
2023-07-22T18:56:22.677Z,46.28
2023-07-22T18:58:53.089Z,46.48
2023-07-22T19:01:24.590Z,46.99
2023-07-22T19:03:54.921Z,45.62
2023-07-22T19:06:25.184Z,47.35
2023-07-22T19:08:58.152Z,47.35
2023-07-22T19:11:28.719Z,47.61
2023-07-22T19:14:00.224Z,47.38
2023-07-22T19:16:30.794Z,48.38
2023-07-22T19:19:00.959Z,48.48
2023-07-22T19:21:31.057Z,48.81
2023-07-22T19:24:03.724Z,47.85
2023-07-22T19:26:33.789Z,47.38
2023-07-22T19:29:03.859Z,48.78
2023-07-22T19:31:34.070Z,47.53
2023-07-22T19:34:04.134Z,48.85
2023-07-22T19:36:34.970Z,47.90
2023-07-22T19:39:08.677Z,47.72
2023-07-22T19:41:40.141Z,47.63
2023-07-22T19:44:11.851Z,47.80
2023-07-22T19:46:41.894Z,48.01
2023-07-22T19:49:12.136Z,48.27
2023-07-22T19:51:46.228Z,48.24
2023-07-22T19:54:32.219Z,48.36
2023-07-22T19:57:02.248Z,48.69
2023-07-22T19:59:32.537Z,48.09
2023-07-22T20:02:02.819Z,48.70
2023-07-22T20:04:34.359Z,48.75
2023-07-22T20:07:04.856Z,48.79
2023-07-22T20:09:37.908Z,49.19
2023-07-22T20:12:16.277Z,49.16
2023-07-22T20:14:46.376Z,49.71
2023-07-22T20:17:16.537Z,49.41
2023-07-22T20:19:46.694Z,49.38
2023-07-22T20:22:17.142Z,49.89
2023-07-22T20:24:49.989Z,49.59
2023-07-22T20:27:23.097Z,49.85
2023-07-22T20:29:57.127Z,49.77
2023-07-22T20:32:29.984Z,50.32
2023-07-22T20:35:01.162Z,50.42
2023-07-22T20:37:31.584Z,50.21
2023-07-22T20:40:04.477Z,50.09
2023-07-22T20:42:34.615Z,50.55
2023-07-22T20:45:04.926Z,50.73
2023-07-22T20:47:35.061Z,50.78
2023-07-22T20:50:05.300Z,51.09
2023-07-22T20:52:35.866Z,51.03
2023-07-22T20:55:15.333Z,51.00
2023-07-22T20:57:45.569Z,50.88
2023-07-22T21:00:16.763Z,51.22
2023-07-22T21:02:47.156Z,51.55
2023-07-22T21:05:17.261Z,51.62
2023-07-22T21:07:49.907Z,51.88
2023-07-22T21:10:22.700Z,51.53
2023-07-22T21:12:52.848Z,52.01
2023-07-22T21:15:22.890Z,52.62
2023-07-22T21:17:52.997Z,52.78
2023-07-22T21:20:24.034Z,52.82
2023-07-22T21:22:54.117Z,53.26
2023-07-22T21:25:26.889Z,53.47
2023-07-22T21:27:56.928Z,53.42
2023-07-22T21:30:27.243Z,53.51
2023-07-22T21:32:57.333Z,53.75
2023-07-22T21:35:27.498Z,53.80
2023-07-22T21:37:57.503Z,53.70
2023-07-22T21:40:33.088Z,53.48
2023-07-22T21:43:03.930Z,53.65
2023-07-22T21:45:36.552Z,53.68
2023-07-22T21:48:07.022Z,53.85
2023-07-22T21:50:39.343Z,53.54
2023-07-22T21:53:10.364Z,53.67
2023-07-22T21:55:43.008Z,53.66
2023-07-22T21:58:13.102Z,54.10
2023-07-22T22:00:43.262Z,54.06
2023-07-22T22:03:13.816Z,54.14
2023-07-22T22:05:44.027Z,54.28
2023-07-22T22:08:14.115Z,54.54
2023-07-22T22:10:47.869Z,54.37
2023-07-22T22:13:22.861Z,54.71
2023-07-22T22:15:53.678Z,54.95
2023-07-22T22:18:23.737Z,54.78
2023-07-22T22:20:53.863Z,55.03
2023-07-22T22:23:23.885Z,55.07
2023-07-22T22:25:56.543Z,54.84
2023-07-22T22:28:26.572Z,55.13
2023-07-22T22:30:56.727Z,55.08
2023-07-22T22:33:29.152Z,54.99
2023-07-22T22:35:59.715Z,54.81
2023-07-22T22:38:30.019Z,55.03
2023-07-22T22:41:02.812Z,54.96
2023-07-22T22:43:33.187Z,55.06
2023-07-22T22:46:18.022Z,55.16
2023-07-22T22:48:48.114Z,55.17
2023-07-22T22:51:18.166Z,55.25
2023-07-22T22:53:48.263Z,55.19
2023-07-22T22:56:21.097Z,54.94
2023-07-22T22:58:51.287Z,54.82
2023-07-22T23:01:22.588Z,55.06
2023-07-22T23:03:52.815Z,55.09
2023-07-22T23:06:24.417Z,55.04
2023-07-22T23:08:55.032Z,55.39
2023-07-22T23:11:27.897Z,55.22
2023-07-22T23:13:58.804Z,55.14
2023-07-22T23:16:28.946Z,54.94
2023-07-22T23:18:59.145Z,54.88
2023-07-22T23:21:29.312Z,54.72
2023-07-22T23:23:59.498Z,54.86
2023-07-22T23:26:32.870Z,54.67
2023-07-22T23:29:02.928Z,54.53
2023-07-22T23:31:36.211Z,54.36
2023-07-22T23:34:06.349Z,54.59
2023-07-22T23:36:37.594Z,54.65
2023-07-22T23:39:07.865Z,54.85
2023-07-22T23:41:40.504Z,54.71
2023-07-22T23:44:10.546Z,54.80
2023-07-22T23:46:40.632Z,54.96
2023-07-22T23:49:10.883Z,54.40
2023-07-22T23:51:41.125Z,54.66
2023-07-22T23:54:11.170Z,54.59
2023-07-22T23:56:43.963Z,54.32
2023-07-22T23:59:17.280Z,54.28
